sensor_id;sensor_type;location;lat;lon;timestamp;P1;durP1;ratioP1;P2;durP2;ratioP2
11681;SDS011;5897;42.640;23.310;2023-04-08T00:01:30;22.83;;;19.13;;
11681;SDS011;5897;42.640;23.310;2023-04-08T00:03:56;23.10;;;18.40;;
11681;SDS011;5897;42.640;23.310;2023-04-08T00:06:23;23.90;;;18.92;;
11681;SDS011;5897;42.640;23.310;2023-04-08T00:08:51;24.15;;;19.58;;
11681;SDS011;5897;42.640;23.310;2023-04-08T00:11:18;22.63;;;18.45;;
11681;SDS011;5897;42.640;23.310;2023-04-08T00:13:44;21.13;;;18.55;;
11681;SDS011;5897;42.640;23.310;2023-04-08T00:16:11;22.35;;;18.55;;
11681;SDS011;5897;42.640;23.310;2023-04-08T00:18:39;24.23;;;18.50;;
11681;SDS011;5897;42.640;23.310;2023-04-08T00:21:06;24.55;;;18.90;;
11681;SDS011;5897;42.640;23.310;2023-04-08T00:23:33;22.80;;;18.63;;
11681;SDS011;5897;42.640;23.310;2023-04-08T00:26:00;23.90;;;19.77;;
11681;SDS011;5897;42.640;23.310;2023-04-08T00:28:27;26.17;;;20.65;;
11681;SDS011;5897;42.640;23.310;2023-04-08T00:30:54;24.25;;;20.52;;
11681;SDS011;5897;42.640;23.310;2023-04-08T00:33:21;23.50;;;19.90;;
11681;SDS011;5897;42.640;23.310;2023-04-08T00:35:51;24.35;;;20.83;;
11681;SDS011;5897;42.640;23.310;2023-04-08T00:38:17;28.92;;;21.95;;
11681;SDS011;5897;42.640;23.310;2023-04-08T00:40:44;28.95;;;21.75;;
11681;SDS011;5897;42.640;23.310;2023-04-08T00:43:11;27.25;;;22.45;;
11681;SDS011;5897;42.640;23.310;2023-04-08T00:45:38;27.80;;;21.15;;
11681;SDS011;5897;42.640;23.310;2023-04-08T00:48:05;28.58;;;22.38;;
11681;SDS011;5897;42.640;23.310;2023-04-08T00:50:31;26.83;;;21.40;;
11681;SDS011;5897;42.640;23.310;2023-04-08T00:53:00;28.10;;;21.45;;
11681;SDS011;5897;42.640;23.310;2023-04-08T00:55:26;28.65;;;21.48;;
11681;SDS011;5897;42.640;23.310;2023-04-08T00:57:54;29.42;;;21.27;;
11681;SDS011;5897;42.640;23.310;2023-04-08T01:00:22;33.60;;;22.85;;
11681;SDS011;5897;42.640;23.310;2023-04-08T01:02:50;28.40;;;21.50;;
11681;SDS011;5897;42.640;23.310;2023-04-08T01:05:26;26.60;;;21.20;;
11681;SDS011;5897;42.640;23.310;2023-04-08T01:08:04;27.17;;;20.73;;
11681;SDS011;5897;42.640;23.310;2023-04-08T01:10:34;24.50;;;20.15;;
11681;SDS011;5897;42.640;23.310;2023-04-08T01:13:03;23.25;;;18.52;;
11681;SDS011;5897;42.640;23.310;2023-04-08T01:15:32;22.92;;;19.40;;
11681;SDS011;5897;42.640;23.310;2023-04-08T01:18:05;26.63;;;19.17;;
11681;SDS011;5897;42.640;23.310;2023-04-08T01:20:33;23.13;;;18.83;;
11681;SDS011;5897;42.640;23.310;2023-04-08T01:23:02;22.48;;;19.02;;
11681;SDS011;5897;42.640;23.310;2023-04-08T01:25:38;23.00;;;19.25;;
11681;SDS011;5897;42.640;23.310;2023-04-08T01:28:06;25.90;;;19.95;;
11681;SDS011;5897;42.640;23.310;2023-04-08T01:30:37;24.83;;;18.98;;
11681;SDS011;5897;42.640;23.310;2023-04-08T01:33:05;24.13;;;20.13;;
11681;SDS011;5897;42.640;23.310;2023-04-08T01:35:33;25.63;;;20.17;;
11681;SDS011;5897;42.640;23.310;2023-04-08T01:38:01;28.85;;;20.88;;
11681;SDS011;5897;42.640;23.310;2023-04-08T01:40:30;24.40;;;20.10;;
11681;SDS011;5897;42.640;23.310;2023-04-08T01:42:59;24.95;;;19.45;;
11681;SDS011;5897;42.640;23.310;2023-04-08T01:45:29;24.10;;;18.85;;
11681;SDS011;5897;42.640;23.310;2023-04-08T01:47:56;21.48;;;18.77;;
11681;SDS011;5897;42.640;23.310;2023-04-08T01:50:25;23.20;;;19.13;;
11681;SDS011;5897;42.640;23.310;2023-04-08T01:52:53;24.85;;;18.98;;
11681;SDS011;5897;42.640;23.310;2023-04-08T01:55:21;25.20;;;18.52;;
11681;SDS011;5897;42.640;23.310;2023-04-08T01:57:49;21.83;;;18.60;;
11681;SDS011;5897;42.640;23.310;2023-04-08T02:00:18;23.02;;;18.42;;
11681;SDS011;5897;42.640;23.310;2023-04-08T02:02:51;22.30;;;17.02;;
11681;SDS011;5897;42.640;23.310;2023-04-08T02:05:19;21.48;;;17.33;;
11681;SDS011;5897;42.640;23.310;2023-04-08T02:07:46;20.35;;;17.25;;
11681;SDS011;5897;42.640;23.310;2023-04-08T02:10:13;21.98;;;18.15;;
11681;SDS011;5897;42.640;23.310;2023-04-08T02:12:40;21.60;;;17.77;;
11681;SDS011;5897;42.640;23.310;2023-04-08T02:15:08;22.23;;;18.27;;
11681;SDS011;5897;42.640;23.310;2023-04-08T02:17:38;20.80;;;17.83;;
11681;SDS011;5897;42.640;23.310;2023-04-08T02:20:12;23.85;;;18.02;;
11681;SDS011;5897;42.640;23.310;2023-04-08T02:22:46;22.33;;;17.73;;
11681;SDS011;5897;42.640;23.310;2023-04-08T02:25:15;20.05;;;16.70;;
11681;SDS011;5897;42.640;23.310;2023-04-08T02:27:43;18.00;;;15.52;;
11681;SDS011;5897;42.640;23.310;2023-04-08T02:30:13;23.73;;;16.25;;
11681;SDS011;5897;42.640;23.310;2023-04-08T02:32:41;22.40;;;18.05;;
11681;SDS011;5897;42.640;23.310;2023-04-08T02:35:11;20.27;;;17.25;;
11681;SDS011;5897;42.640;23.310;2023-04-08T02:37:39;25.67;;;18.92;;
11681;SDS011;5897;42.640;23.310;2023-04-08T02:40:22;22.23;;;18.25;;
11681;SDS011;5897;42.640;23.310;2023-04-08T02:42:50;23.27;;;18.30;;
11681;SDS011;5897;42.640;23.310;2023-04-08T02:45:17;25.65;;;18.67;;
11681;SDS011;5897;42.640;23.310;2023-04-08T02:47:44;23.20;;;19.10;;
11681;SDS011;5897;42.640;23.310;2023-04-08T02:50:12;21.00;;;17.60;;
11681;SDS011;5897;42.640;23.310;2023-04-08T02:52:39;19.90;;;17.48;;
11681;SDS011;5897;42.640;23.310;2023-04-08T02:55:07;22.67;;;17.95;;
11681;SDS011;5897;42.640;23.310;2023-04-08T02:57:35;20.20;;;17.45;;
11681;SDS011;5897;42.640;23.310;2023-04-08T03:00:02;21.02;;;17.38;;
11681;SDS011;5897;42.640;23.310;2023-04-08T03:02:30;21.55;;;17.92;;
11681;SDS011;5897;42.640;23.310;2023-04-08T03:04:57;21.25;;;17.42;;
11681;SDS011;5897;42.640;23.310;2023-04-08T03:07:25;20.23;;;16.88;;
11681;SDS011;5897;42.640;23.310;2023-04-08T03:09:52;21.40;;;17.55;;
11681;SDS011;5897;42.640;23.310;2023-04-08T03:12:20;23.13;;;18.00;;
11681;SDS011;5897;42.640;23.310;2023-04-08T03:14:47;21.13;;;18.73;;
11681;SDS011;5897;42.640;23.310;2023-04-08T03:17:14;21.73;;;17.70;;
11681;SDS011;5897;42.640;23.310;2023-04-08T03:19:40;23.50;;;17.85;;
11681;SDS011;5897;42.640;23.310;2023-04-08T03:22:07;20.63;;;18.10;;
11681;SDS011;5897;42.640;23.310;2023-04-08T03:24:36;22.15;;;17.83;;
11681;SDS011;5897;42.640;23.310;2023-04-08T03:27:03;22.20;;;19.23;;
11681;SDS011;5897;42.640;23.310;2023-04-08T03:29:29;21.48;;;18.30;;
11681;SDS011;5897;42.640;23.310;2023-04-08T03:31:56;24.08;;;19.67;;
11681;SDS011;5897;42.640;23.310;2023-04-08T03:34:23;24.00;;;20.05;;
11681;SDS011;5897;42.640;23.310;2023-04-08T03:36:50;23.98;;;20.13;;
11681;SDS011;5897;42.640;23.310;2023-04-08T03:39:17;27.08;;;20.33;;
11681;SDS011;5897;42.640;23.310;2023-04-08T03:41:45;26.42;;;20.40;;
11681;SDS011;5897;42.640;23.310;2023-04-08T03:44:12;23.40;;;19.40;;
11681;SDS011;5897;42.640;23.310;2023-04-08T03:46:39;28.63;;;20.70;;
11681;SDS011;5897;42.640;23.310;2023-04-08T03:49:06;23.98;;;19.90;;
11681;SDS011;5897;42.640;23.310;2023-04-08T03:51:32;23.65;;;19.73;;
11681;SDS011;5897;42.640;23.310;2023-04-08T03:53:59;23.48;;;19.45;;
11681;SDS011;5897;42.640;23.310;2023-04-08T03:56:26;26.83;;;19.55;;
11681;SDS011;5897;42.640;23.310;2023-04-08T03:58:54;21.95;;;18.67;;
11681;SDS011;5897;42.640;23.310;2023-04-08T04:01:21;26.88;;;19.45;;
11681;SDS011;5897;42.640;23.310;2023-04-08T04:03:47;22.92;;;19.33;;
11681;SDS011;5897;42.640;23.310;2023-04-08T04:06:14;24.88;;;18.35;;
11681;SDS011;5897;42.640;23.310;2023-04-08T04:08:41;22.58;;;19.17;;
11681;SDS011;5897;42.640;23.310;2023-04-08T04:11:08;24.98;;;19.17;;
11681;SDS011;5897;42.640;23.310;2023-04-08T04:13:35;25.85;;;18.92;;
11681;SDS011;5897;42.640;23.310;2023-04-08T04:16:03;25.83;;;20.38;;
11681;SDS011;5897;42.640;23.310;2023-04-08T04:18:30;23.95;;;19.90;;
11681;SDS011;5897;42.640;23.310;2023-04-08T04:20:57;25.50;;;19.73;;
11681;SDS011;5897;42.640;23.310;2023-04-08T04:23:24;26.15;;;20.88;;
11681;SDS011;5897;42.640;23.310;2023-04-08T04:25:50;23.15;;;19.65;;
11681;SDS011;5897;42.640;23.310;2023-04-08T04:28:17;23.25;;;19.48;;
11681;SDS011;5897;42.640;23.310;2023-04-08T04:30:44;25.45;;;19.58;;
11681;SDS011;5897;42.640;23.310;2023-04-08T04:33:12;26.70;;;20.58;;
11681;SDS011;5897;42.640;23.310;2023-04-08T04:35:39;27.80;;;21.40;;
11681;SDS011;5897;42.640;23.310;2023-04-08T04:38:06;29.73;;;21.65;;
11681;SDS011;5897;42.640;23.310;2023-04-08T04:40:36;30.67;;;22.40;;
11681;SDS011;5897;42.640;23.310;2023-04-08T04:43:03;25.30;;;20.85;;
11681;SDS011;5897;42.640;23.310;2023-04-08T04:45:30;24.08;;;19.23;;
11681;SDS011;5897;42.640;23.310;2023-04-08T04:47:57;27.10;;;18.92;;
11681;SDS011;5897;42.640;23.310;2023-04-08T04:50:25;24.08;;;17.95;;
11681;SDS011;5897;42.640;23.310;2023-04-08T04:52:52;18.63;;;16.40;;
11681;SDS011;5897;42.640;23.310;2023-04-08T04:55:19;26.70;;;18.23;;
11681;SDS011;5897;42.640;23.310;2023-04-08T04:57:46;22.58;;;18.92;;
11681;SDS011;5897;42.640;23.310;2023-04-08T05:00:13;23.58;;;18.58;;
11681;SDS011;5897;42.640;23.310;2023-04-08T05:02:41;25.55;;;18.25;;
11681;SDS011;5897;42.640;23.310;2023-04-08T05:05:08;22.63;;;18.75;;
11681;SDS011;5897;42.640;23.310;2023-04-08T05:07:36;25.80;;;19.30;;
11681;SDS011;5897;42.640;23.310;2023-04-08T05:10:04;23.80;;;19.20;;
11681;SDS011;5897;42.640;23.310;2023-04-08T05:12:31;25.83;;;19.45;;
11681;SDS011;5897;42.640;23.310;2023-04-08T05:14:58;24.73;;;20.02;;
11681;SDS011;5897;42.640;23.310;2023-04-08T05:17:25;26.67;;;21.17;;
11681;SDS011;5897;42.640;23.310;2023-04-08T05:19:51;24.23;;;20.48;;
11681;SDS011;5897;42.640;23.310;2023-04-08T05:22:18;28.67;;;20.95;;
11681;SDS011;5897;42.640;23.310;2023-04-08T05:24:46;26.73;;;20.05;;
11681;SDS011;5897;42.640;23.310;2023-04-08T05:27:13;23.75;;;17.50;;
11681;SDS011;5897;42.640;23.310;2023-04-08T05:29:40;21.63;;;18.40;;
11681;SDS011;5897;42.640;23.310;2023-04-08T05:32:07;21.35;;;17.52;;
11681;SDS011;5897;42.640;23.310;2023-04-08T05:34:34;19.65;;;16.38;;
11681;SDS011;5897;42.640;23.310;2023-04-08T05:37:01;18.40;;;16.00;;
11681;SDS011;5897;42.640;23.310;2023-04-08T05:39:28;18.60;;;16.27;;
11681;SDS011;5897;42.640;23.310;2023-04-08T05:41:56;18.38;;;15.68;;
11681;SDS011;5897;42.640;23.310;2023-04-08T05:44:22;19.10;;;16.15;;
11681;SDS011;5897;42.640;23.310;2023-04-08T05:46:49;18.33;;;15.75;;
11681;SDS011;5897;42.640;23.310;2023-04-08T05:49:16;20.17;;;16.58;;
11681;SDS011;5897;42.640;23.310;2023-04-08T05:51:43;20.48;;;16.45;;
11681;SDS011;5897;42.640;23.310;2023-04-08T05:54:10;20.80;;;15.98;;
11681;SDS011;5897;42.640;23.310;2023-04-08T05:56:37;18.92;;;15.95;;
11681;SDS011;5897;42.640;23.310;2023-04-08T05:59:05;19.27;;;15.35;;
11681;SDS011;5897;42.640;23.310;2023-04-08T06:01:32;20.92;;;16.50;;
11681;SDS011;5897;42.640;23.310;2023-04-08T06:03:58;23.05;;;17.42;;
11681;SDS011;5897;42.640;23.310;2023-04-08T06:06:25;23.65;;;17.08;;
11681;SDS011;5897;42.640;23.310;2023-04-08T06:08:52;22.10;;;16.10;;
11681;SDS011;5897;42.640;23.310;2023-04-08T06:11:19;20.58;;;15.60;;
11681;SDS011;5897;42.640;23.310;2023-04-08T06:13:45;20.13;;;15.57;;
11681;SDS011;5897;42.640;23.310;2023-04-08T06:16:14;17.67;;;15.77;;
11681;SDS011;5897;42.640;23.310;2023-04-08T06:18:42;19.42;;;14.85;;
11681;SDS011;5897;42.640;23.310;2023-04-08T06:21:08;19.65;;;14.57;;
11681;SDS011;5897;42.640;23.310;2023-04-08T06:23:36;17.60;;;14.30;;
11681;SDS011;5897;42.640;23.310;2023-04-08T06:26:02;20.90;;;15.27;;
11681;SDS011;5897;42.640;23.310;2023-04-08T06:28:30;16.55;;;14.43;;
11681;SDS011;5897;42.640;23.310;2023-04-08T06:30:56;18.73;;;15.13;;
11681;SDS011;5897;42.640;23.310;2023-04-08T06:33:25;19.30;;;15.27;;
11681;SDS011;5897;42.640;23.310;2023-04-08T06:35:59;17.23;;;14.55;;
11681;SDS011;5897;42.640;23.310;2023-04-08T06:38:27;19.58;;;14.23;;
11681;SDS011;5897;42.640;23.310;2023-04-08T06:40:54;16.42;;;14.40;;
11681;SDS011;5897;42.640;23.310;2023-04-08T06:43:20;19.95;;;14.82;;
11681;SDS011;5897;42.640;23.310;2023-04-08T06:45:47;21.02;;;14.88;;
11681;SDS011;5897;42.640;23.310;2023-04-08T06:48:15;16.73;;;14.80;;
11681;SDS011;5897;42.640;23.310;2023-04-08T06:50:43;19.38;;;14.88;;
11681;SDS011;5897;42.640;23.310;2023-04-08T06:53:10;16.88;;;14.73;;
11681;SDS011;5897;42.640;23.310;2023-04-08T06:55:36;23.60;;;15.05;;
11681;SDS011;5897;42.640;23.310;2023-04-08T06:58:03;20.40;;;14.50;;
11681;SDS011;5897;42.640;23.310;2023-04-08T07:00:30;19.95;;;14.57;;
11681;SDS011;5897;42.640;23.310;2023-04-08T07:02:56;15.77;;;12.90;;
11681;SDS011;5897;42.640;23.310;2023-04-08T07:05:23;17.70;;;13.85;;
11681;SDS011;5897;42.640;23.310;2023-04-08T07:07:51;19.05;;;13.05;;
11681;SDS011;5897;42.640;23.310;2023-04-08T07:10:18;16.70;;;12.60;;
11681;SDS011;5897;42.640;23.310;2023-04-08T07:12:45;16.23;;;12.90;;
11681;SDS011;5897;42.640;23.310;2023-04-08T07:15:12;16.42;;;13.43;;
11681;SDS011;5897;42.640;23.310;2023-04-08T07:17:38;15.50;;;13.50;;
11681;SDS011;5897;42.640;23.310;2023-04-08T07:20:06;19.17;;;13.80;;
11681;SDS011;5897;42.640;23.310;2023-04-08T07:22:33;17.17;;;13.90;;
11681;SDS011;5897;42.640;23.310;2023-04-08T07:25:01;21.75;;;13.80;;
11681;SDS011;5897;42.640;23.310;2023-04-08T07:27:28;14.35;;;12.55;;
11681;SDS011;5897;42.640;23.310;2023-04-08T07:29:55;16.88;;;13.15;;
11681;SDS011;5897;42.640;23.310;2023-04-08T07:32:22;16.50;;;12.38;;
11681;SDS011;5897;42.640;23.310;2023-04-08T07:34:48;15.95;;;11.88;;
11681;SDS011;5897;42.640;23.310;2023-04-08T07:37:15;15.73;;;12.60;;
11681;SDS011;5897;42.640;23.310;2023-04-08T07:39:42;14.52;;;12.13;;
11681;SDS011;5897;42.640;23.310;2023-04-08T07:42:10;14.80;;;12.00;;
11681;SDS011;5897;42.640;23.310;2023-04-08T07:44:37;13.23;;;11.82;;
11681;SDS011;5897;42.640;23.310;2023-04-08T07:47:04;14.25;;;11.82;;
11681;SDS011;5897;42.640;23.310;2023-04-08T07:49:31;13.52;;;11.77;;
11681;SDS011;5897;42.640;23.310;2023-04-08T07:51:58;14.68;;;11.88;;
11681;SDS011;5897;42.640;23.310;2023-04-08T07:54:24;15.73;;;12.95;;
11681;SDS011;5897;42.640;23.310;2023-04-08T07:56:52;13.13;;;11.73;;
11681;SDS011;5897;42.640;23.310;2023-04-08T07:59:20;11.98;;;10.75;;
11681;SDS011;5897;42.640;23.310;2023-04-08T08:01:47;15.82;;;13.05;;
11681;SDS011;5897;42.640;23.310;2023-04-08T08:04:14;16.42;;;13.88;;
11681;SDS011;5897;42.640;23.310;2023-04-08T08:06:41;15.98;;;12.57;;
11681;SDS011;5897;42.640;23.310;2023-04-08T08:09:08;13.68;;;12.23;;
11681;SDS011;5897;42.640;23.310;2023-04-08T08:11:35;15.32;;;12.13;;
11681;SDS011;5897;42.640;23.310;2023-04-08T08:14:01;12.18;;;10.93;;
11681;SDS011;5897;42.640;23.310;2023-04-08T08:16:30;18.25;;;13.15;;
11681;SDS011;5897;42.640;23.310;2023-04-08T08:18:57;14.77;;;12.10;;
11681;SDS011;5897;42.640;23.310;2023-04-08T08:21:28;12.90;;;11.50;;
11681;SDS011;5897;42.640;23.310;2023-04-08T08:23:55;19.30;;;12.68;;
11681;SDS011;5897;42.640;23.310;2023-04-08T08:26:24;16.35;;;12.32;;
11681;SDS011;5897;42.640;23.310;2023-04-08T08:28:51;16.15;;;12.27;;
11681;SDS011;5897;42.640;23.310;2023-04-08T08:31:18;15.30;;;12.65;;
11681;SDS011;5897;42.640;23.310;2023-04-08T08:33:46;12.77;;;11.43;;
11681;SDS011;5897;42.640;23.310;2023-04-08T08:36:13;12.55;;;11.25;;
11681;SDS011;5897;42.640;23.310;2023-04-08T08:41:31;16.08;;;12.25;;
11681;SDS011;5897;42.640;23.310;2023-04-08T08:44:00;12.93;;;11.32;;
11681;SDS011;5897;42.640;23.310;2023-04-08T08:46:28;13.60;;;11.50;;
11681;SDS011;5897;42.640;23.310;2023-04-08T08:48:59;12.85;;;11.38;;
11681;SDS011;5897;42.640;23.310;2023-04-08T08:51:25;12.13;;;10.93;;
11681;SDS011;5897;42.640;23.310;2023-04-08T08:53:53;13.60;;;10.93;;
11681;SDS011;5897;42.640;23.310;2023-04-08T08:56:26;12.70;;;11.40;;
11681;SDS011;5897;42.640;23.310;2023-04-08T08:58:53;14.00;;;11.15;;
11681;SDS011;5897;42.640;23.310;2023-04-08T09:01:31;16.13;;;11.27;;
11681;SDS011;5897;42.640;23.310;2023-04-08T09:04:07;12.88;;;10.15;;
11681;SDS011;5897;42.640;23.310;2023-04-08T09:06:36;12.80;;;10.57;;
11681;SDS011;5897;42.640;23.310;2023-04-08T09:09:03;12.70;;;10.52;;
11681;SDS011;5897;42.640;23.310;2023-04-08T09:11:34;12.07;;;10.18;;
11681;SDS011;5897;42.640;23.310;2023-04-08T09:14:02;11.63;;;10.50;;
11681;SDS011;5897;42.640;23.310;2023-04-08T09:16:30;13.75;;;11.35;;
11681;SDS011;5897;42.640;23.310;2023-04-08T09:19:07;15.25;;;12.50;;
11681;SDS011;5897;42.640;23.310;2023-04-08T09:21:35;16.48;;;13.27;;
11681;SDS011;5897;42.640;23.310;2023-04-08T09:24:03;16.05;;;14.35;;
11681;SDS011;5897;42.640;23.310;2023-04-08T09:26:29;16.85;;;13.98;;
11681;SDS011;5897;42.640;23.310;2023-04-08T09:28:57;14.85;;;13.18;;
11681;SDS011;5897;42.640;23.310;2023-04-08T09:31:26;13.88;;;10.98;;
11681;SDS011;5897;42.640;23.310;2023-04-08T09:33:54;13.02;;;10.73;;
11681;SDS011;5897;42.640;23.310;2023-04-08T09:36:24;13.82;;;10.60;;
11681;SDS011;5897;42.640;23.310;2023-04-08T09:38:52;12.43;;;10.25;;
11681;SDS011;5897;42.640;23.310;2023-04-08T09:41:19;10.10;;;8.18;;
11681;SDS011;5897;42.640;23.310;2023-04-08T09:43:48;10.02;;;8.63;;
11681;SDS011;5897;42.640;23.310;2023-04-08T09:46:17;10.02;;;8.48;;
11681;SDS011;5897;42.640;23.310;2023-04-08T09:48:54;11.50;;;8.43;;
11681;SDS011;5897;42.640;23.310;2023-04-08T09:51:28;9.10;;;8.15;;
11681;SDS011;5897;42.640;23.310;2023-04-08T09:54:00;11.48;;;9.63;;
11681;SDS011;5897;42.640;23.310;2023-04-08T09:56:34;14.70;;;10.30;;
11681;SDS011;5897;42.640;23.310;2023-04-08T09:59:08;16.23;;;14.00;;
11681;SDS011;5897;42.640;23.310;2023-04-08T10:01:43;18.75;;;16.65;;
11681;SDS011;5897;42.640;23.310;2023-04-08T10:04:12;12.75;;;10.60;;
11681;SDS011;5897;42.640;23.310;2023-04-08T10:06:42;12.75;;;11.32;;
11681;SDS011;5897;42.640;23.310;2023-04-08T10:09:10;12.23;;;10.88;;
11681;SDS011;5897;42.640;23.310;2023-04-08T10:11:37;15.40;;;11.45;;
11681;SDS011;5897;42.640;23.310;2023-04-08T10:14:04;15.95;;;11.98;;
11681;SDS011;5897;42.640;23.310;2023-04-08T10:16:31;15.20;;;12.32;;
11681;SDS011;5897;42.640;23.310;2023-04-08T10:18:58;15.45;;;12.80;;
11681;SDS011;5897;42.640;23.310;2023-04-08T10:21:34;16.05;;;12.88;;
11681;SDS011;5897;42.640;23.310;2023-04-08T10:24:09;15.32;;;12.95;;
11681;SDS011;5897;42.640;23.310;2023-04-08T10:26:37;15.77;;;12.75;;
11681;SDS011;5897;42.640;23.310;2023-04-08T10:34:55;15.57;;;13.82;;
11681;SDS011;5897;42.640;23.310;2023-04-08T10:37:22;18.25;;;14.45;;
11681;SDS011;5897;42.640;23.310;2023-04-08T10:39:50;15.70;;;13.38;;
11681;SDS011;5897;42.640;23.310;2023-04-08T10:42:25;16.00;;;13.65;;
11681;SDS011;5897;42.640;23.310;2023-04-08T10:44:52;17.65;;;14.80;;
11681;SDS011;5897;42.640;23.310;2023-04-08T10:47:24;16.30;;;14.45;;
11681;SDS011;5897;42.640;23.310;2023-04-08T10:49:52;16.83;;;13.85;;
11681;SDS011;5897;42.640;23.310;2023-04-08T10:52:19;17.60;;;13.63;;
11681;SDS011;5897;42.640;23.310;2023-04-08T10:54:47;14.70;;;12.50;;
11681;SDS011;5897;42.640;23.310;2023-04-08T10:57:15;14.07;;;11.57;;
11681;SDS011;5897;42.640;23.310;2023-04-08T10:59:49;15.10;;;11.63;;
11681;SDS011;5897;42.640;23.310;2023-04-08T11:02:16;13.95;;;12.30;;
11681;SDS011;5897;42.640;23.310;2023-04-08T11:04:43;20.05;;;12.75;;
11681;SDS011;5897;42.640;23.310;2023-04-08T11:07:11;19.10;;;14.07;;
11681;SDS011;5897;42.640;23.310;2023-04-08T11:09:39;19.48;;;14.45;;
11681;SDS011;5897;42.640;23.310;2023-04-08T11:12:06;17.90;;;12.80;;
11681;SDS011;5897;42.640;23.310;2023-04-08T11:14:34;14.05;;;11.90;;
11681;SDS011;5897;42.640;23.310;2023-04-08T11:17:02;17.95;;;13.27;;
11681;SDS011;5897;42.640;23.310;2023-04-08T11:19:30;15.68;;;13.05;;
11681;SDS011;5897;42.640;23.310;2023-04-08T11:21:57;15.07;;;11.50;;
11681;SDS011;5897;42.640;23.310;2023-04-08T11:24:24;14.82;;;11.70;;
11681;SDS011;5897;42.640;23.310;2023-04-08T11:26:51;12.82;;;11.45;;
11681;SDS011;5897;42.640;23.310;2023-04-08T11:29:19;11.95;;;10.60;;
11681;SDS011;5897;42.640;23.310;2023-04-08T11:31:47;12.55;;;9.98;;
11681;SDS011;5897;42.640;23.310;2023-04-08T11:34:20;12.70;;;10.65;;
11681;SDS011;5897;42.640;23.310;2023-04-08T11:36:48;12.75;;;9.32;;
11681;SDS011;5897;42.640;23.310;2023-04-08T11:39:15;10.70;;;8.30;;
11681;SDS011;5897;42.640;23.310;2023-04-08T11:41:42;8.82;;;7.95;;
11681;SDS011;5897;42.640;23.310;2023-04-08T11:44:08;7.10;;;6.40;;
11681;SDS011;5897;42.640;23.310;2023-04-08T11:46:35;8.38;;;6.82;;
11681;SDS011;5897;42.640;23.310;2023-04-08T11:49:06;8.60;;;7.70;;
11681;SDS011;5897;42.640;23.310;2023-04-08T11:51:34;9.90;;;8.07;;
11681;SDS011;5897;42.640;23.310;2023-04-08T11:54:24;10.48;;;8.10;;
11681;SDS011;5897;42.640;23.310;2023-04-08T11:56:52;7.95;;;7.15;;
11681;SDS011;5897;42.640;23.310;2023-04-08T11:59:20;8.98;;;8.05;;
11681;SDS011;5897;42.640;23.310;2023-04-08T12:01:46;9.15;;;7.82;;
11681;SDS011;5897;42.640;23.310;2023-04-08T12:04:14;9.65;;;7.80;;
11681;SDS011;5897;42.640;23.310;2023-04-08T12:06:41;9.10;;;7.88;;
11681;SDS011;5897;42.640;23.310;2023-04-08T12:09:11;8.23;;;7.38;;
11681;SDS011;5897;42.640;23.310;2023-04-08T12:11:37;7.43;;;6.72;;
11681;SDS011;5897;42.640;23.310;2023-04-08T12:14:04;9.45;;;7.22;;
11681;SDS011;5897;42.640;23.310;2023-04-08T12:16:31;8.40;;;7.50;;
11681;SDS011;5897;42.640;23.310;2023-04-08T12:18:58;7.72;;;7.03;;
11681;SDS011;5897;42.640;23.310;2023-04-08T12:21:26;9.85;;;8.05;;
11681;SDS011;5897;42.640;23.310;2023-04-08T12:23:53;10.00;;;8.43;;
11681;SDS011;5897;42.640;23.310;2023-04-08T12:26:20;9.02;;;8.18;;
11681;SDS011;5897;42.640;23.310;2023-04-08T12:28:47;6.78;;;5.88;;
11681;SDS011;5897;42.640;23.310;2023-04-08T12:31:14;8.00;;;6.10;;
11681;SDS011;5897;42.640;23.310;2023-04-08T12:33:41;8.90;;;8.00;;
11681;SDS011;5897;42.640;23.310;2023-04-08T12:36:07;7.75;;;6.85;;
11681;SDS011;5897;42.640;23.310;2023-04-08T12:38:35;9.30;;;8.07;;
11681;SDS011;5897;42.640;23.310;2023-04-08T12:41:02;6.88;;;5.80;;
11681;SDS011;5897;42.640;23.310;2023-04-08T12:43:29;6.95;;;6.25;;
11681;SDS011;5897;42.640;23.310;2023-04-08T12:45:57;10.23;;;7.35;;
11681;SDS011;5897;42.640;23.310;2023-04-08T12:48:24;6.72;;;6.13;;
11681;SDS011;5897;42.640;23.310;2023-04-08T12:50:52;7.22;;;6.50;;
11681;SDS011;5897;42.640;23.310;2023-04-08T12:53:18;7.07;;;6.40;;
11681;SDS011;5897;42.640;23.310;2023-04-08T12:55:47;8.75;;;7.07;;
11681;SDS011;5897;42.640;23.310;2023-04-08T12:58:14;7.07;;;6.47;;
11681;SDS011;5897;42.640;23.310;2023-04-08T13:00:41;7.63;;;6.82;;
11681;SDS011;5897;42.640;23.310;2023-04-08T13:03:10;7.10;;;6.40;;
11681;SDS011;5897;42.640;23.310;2023-04-08T13:05:37;7.38;;;6.60;;
11681;SDS011;5897;42.640;23.310;2023-04-08T13:08:04;7.82;;;7.05;;
11681;SDS011;5897;42.640;23.310;2023-04-08T13:10:31;8.93;;;8.02;;
11681;SDS011;5897;42.640;23.310;2023-04-08T13:12:59;13.13;;;8.35;;
11681;SDS011;5897;42.640;23.310;2023-04-08T13:15:26;9.32;;;8.23;;
11681;SDS011;5897;42.640;23.310;2023-04-08T13:17:54;9.68;;;8.68;;
11681;SDS011;5897;42.640;23.310;2023-04-08T13:20:21;10.68;;;9.05;;
11681;SDS011;5897;42.640;23.310;2023-04-08T13:22:50;9.57;;;8.27;;
11681;SDS011;5897;42.640;23.310;2023-04-08T13:25:16;9.13;;;8.18;;
11681;SDS011;5897;42.640;23.310;2023-04-08T13:27:43;9.48;;;8.57;;
11681;SDS011;5897;42.640;23.310;2023-04-08T13:30:12;9.95;;;8.80;;
11681;SDS011;5897;42.640;23.310;2023-04-08T13:32:38;8.55;;;7.72;;
11681;SDS011;5897;42.640;23.310;2023-04-08T13:35:06;8.70;;;7.80;;
11681;SDS011;5897;42.640;23.310;2023-04-08T13:37:33;9.27;;;8.27;;
11681;SDS011;5897;42.640;23.310;2023-04-08T13:40:00;9.50;;;8.38;;
11681;SDS011;5897;42.640;23.310;2023-04-08T13:42:27;9.35;;;8.45;;
11681;SDS011;5897;42.640;23.310;2023-04-08T13:44:55;9.27;;;8.13;;
11681;SDS011;5897;42.640;23.310;2023-04-08T13:47:23;8.80;;;7.97;;
11681;SDS011;5897;42.640;23.310;2023-04-08T13:49:51;7.57;;;6.57;;
11681;SDS011;5897;42.640;23.310;2023-04-08T13:52:17;7.43;;;6.80;;
11681;SDS011;5897;42.640;23.310;2023-04-08T13:54:44;8.52;;;7.47;;
11681;SDS011;5897;42.640;23.310;2023-04-08T13:57:11;7.82;;;7.05;;
11681;SDS011;5897;42.640;23.310;2023-04-08T13:59:38;9.85;;;8.75;;
11681;SDS011;5897;42.640;23.310;2023-04-08T14:02:05;8.77;;;7.88;;
11681;SDS011;5897;42.640;23.310;2023-04-08T14:04:33;8.50;;;7.50;;
11681;SDS011;5897;42.640;23.310;2023-04-08T14:07:00;7.88;;;6.47;;
11681;SDS011;5897;42.640;23.310;2023-04-08T14:09:27;8.77;;;7.85;;
11681;SDS011;5897;42.640;23.310;2023-04-08T14:11:54;8.85;;;7.97;;
11681;SDS011;5897;42.640;23.310;2023-04-08T14:14:21;9.63;;;8.63;;
11681;SDS011;5897;42.640;23.310;2023-04-08T14:16:48;9.80;;;8.80;;
11681;SDS011;5897;42.640;23.310;2023-04-08T14:19:14;9.65;;;8.75;;
11681;SDS011;5897;42.640;23.310;2023-04-08T14:21:43;9.60;;;8.65;;
11681;SDS011;5897;42.640;23.310;2023-04-08T14:24:09;9.45;;;8.55;;
11681;SDS011;5897;42.640;23.310;2023-04-08T14:26:36;9.02;;;8.13;;
11681;SDS011;5897;42.640;23.310;2023-04-08T14:29:03;9.30;;;8.40;;
11681;SDS011;5897;42.640;23.310;2023-04-08T14:31:31;8.55;;;7.75;;
11681;SDS011;5897;42.640;23.310;2023-04-08T14:33:57;8.45;;;7.60;;
11681;SDS011;5897;42.640;23.310;2023-04-08T14:36:24;9.15;;;8.30;;
11681;SDS011;5897;42.640;23.310;2023-04-08T14:38:53;10.30;;;9.30;;